sensor_id;sensor_type;location;lat;lon;timestamp;pressure;altitude;pressure_sealevel;temperature;humidity
60583;BME280;46415;47.536;19.066;2023-02-11T00:01:34;102479.25;;;-3.08;100.00
60583;BME280;46415;47.536;19.066;2023-02-11T00:04:37;102475.06;;;-3.07;100.00
60583;BME280;46415;47.536;19.066;2023-02-11T00:07:40;102474.09;;;-3.09;100.00
60583;BME280;46415;47.536;19.066;2023-02-11T00:10:43;102473.31;;;-3.08;100.00
60583;BME280;46415;47.536;19.066;2023-02-11T00:13:48;102466.56;;;-3.08;100.00
60583;BME280;46415;47.536;19.066;2023-02-11T00:16:51;102468.69;;;-3.17;100.00
60583;BME280;46415;47.536;19.066;2023-02-11T00:19:53;102464.06;;;-3.25;100.00
60583;BME280;46415;47.536;19.066;2023-02-11T00:22:56;102457.66;;;-3.17;100.00
60583;BME280;46415;47.536;19.066;2023-02-11T00:25:59;102457.31;;;-3.25;100.00
60583;BME280;46415;47.536;19.066;2023-02-11T00:29:03;102458.84;;;-3.28;100.00
60583;BME280;46415;47.536;19.066;2023-02-11T00:32:06;102457.94;;;-3.11;100.00
60583;BME280;46415;47.536;19.066;2023-02-11T00:35:10;102456.72;;;-3.19;100.00
60583;BME280;46415;47.536;19.066;2023-02-11T00:38:13;102450.37;;;-3.29;100.00
60583;BME280;46415;47.536;19.066;2023-02-11T00:41:17;102453.25;;;-3.39;100.00
60583;BME280;46415;47.536;19.066;2023-02-11T00:44:20;102449.56;;;-3.28;100.00
60583;BME280;46415;47.536;19.066;2023-02-11T00:47:23;102450.66;;;-3.23;100.00
60583;BME280;46415;47.536;19.066;2023-02-11T00:50:26;102454.88;;;-3.41;100.00
60583;BME280;46415;47.536;19.066;2023-02-11T00:53:30;102454.59;;;-3.47;100.00
60583;BME280;46415;47.536;19.066;2023-02-11T00:56:34;102454.59;;;-3.47;100.00
60583;BME280;46415;47.536;19.066;2023-02-11T00:59:37;102441.91;;;-3.47;100.00
60583;BME280;46415;47.536;19.066;2023-02-11T01:02:40;102441.31;;;-3.42;100.00
60583;BME280;46415;47.536;19.066;2023-02-11T01:05:46;102431.25;;;-3.40;100.00
60583;BME280;46415;47.536;19.066;2023-02-11T01:08:49;102430.88;;;-3.48;100.00
60583;BME280;46415;47.536;19.066;2023-02-11T01:11:52;102435.28;;;-3.44;100.00
60583;BME280;46415;47.536;19.066;2023-02-11T01:14:54;102422.41;;;-3.48;100.00
60583;BME280;46415;47.536;19.066;2023-02-11T01:17:58;102422.41;;;-3.48;100.00
60583;BME280;46415;47.536;19.066;2023-02-11T01:21:00;102412.66;;;-3.39;100.00
60583;BME280;46415;47.536;19.066;2023-02-11T01:24:04;102405.28;;;-3.35;100.00
60583;BME280;46415;47.536;19.066;2023-02-11T01:27:06;102394.16;;;-3.37;100.00
60583;BME280;46415;47.536;19.066;2023-02-11T01:30:11;102390.56;;;-3.42;100.00
60583;BME280;46415;47.536;19.066;2023-02-11T01:33:14;102397.78;;;-3.32;100.00
60583;BME280;46415;47.536;19.066;2023-02-11T01:36:18;102394.69;;;-3.44;100.00
60583;BME280;46415;47.536;19.066;2023-02-11T01:39:20;102390.06;;;-3.52;100.00
60583;BME280;46415;47.536;19.066;2023-02-11T01:42:23;102392.53;;;-3.54;100.00
60583;BME280;46415;47.536;19.066;2023-02-11T01:48:51;102393.31;;;-3.55;100.00
60583;BME280;46415;47.536;19.066;2023-02-11T01:55:10;102393.72;;;-3.65;100.00
60583;BME280;46415;47.536;19.066;2023-02-11T01:58:33;102391.78;;;-3.71;100.00
60583;BME280;46415;47.536;19.066;2023-02-11T02:01:39;102385.91;;;-3.69;100.00
60583;BME280;46415;47.536;19.066;2023-02-11T02:04:52;102388.28;;;-3.73;100.00
60583;BME280;46415;47.536;19.066;2023-02-11T02:11:06;102387.50;;;-3.72;100.00
60583;BME280;46415;47.536;19.066;2023-02-11T02:14:11;102388.47;;;-3.68;100.00
60583;BME280;46415;47.536;19.066;2023-02-11T02:17:37;102383.50;;;-3.66;100.00
60583;BME280;46415;47.536;19.066;2023-02-11T02:27:33;102392.56;;;-3.72;100.00
60583;BME280;46415;47.536;19.066;2023-02-11T02:31:08;102396.75;;;-3.72;100.00
60583;BME280;46415;47.536;19.066;2023-02-11T02:34:22;102395.81;;;-3.74;100.00
60583;BME280;46415;47.536;19.066;2023-02-11T02:40:58;102371.31;;;-3.74;100.00
60583;BME280;46415;47.536;19.066;2023-02-11T02:44:03;102376.91;;;-3.81;100.00
60583;BME280;46415;47.536;19.066;2023-02-11T02:47:06;102370.75;;;-3.86;100.00
60583;BME280;46415;47.536;19.066;2023-02-11T02:50:09;102369.53;;;-3.94;100.00
60583;BME280;46415;47.536;19.066;2023-02-11T03:00:40;102367.50;;;-4.19;100.00
60583;BME280;46415;47.536;19.066;2023-02-11T03:07:07;102363.59;;;-4.30;100.00
60583;BME280;46415;47.536;19.066;2023-02-11T03:10:29;102360.00;;;-4.33;100.00
60583;BME280;46415;47.536;19.066;2023-02-11T03:13:35;102362.53;;;-4.33;100.00
60583;BME280;46415;47.536;19.066;2023-02-11T03:16:38;102360.31;;;-4.27;100.00
60583;BME280;46415;47.536;19.066;2023-02-11T03:19:43;102354.31;;;-4.29;100.00
60583;BME280;46415;47.536;19.066;2023-02-11T03:22:59;102354.16;;;-4.32;100.00
60583;BME280;46415;47.536;19.066;2023-02-11T03:29:34;102341.56;;;-4.31;100.00
60583;BME280;46415;47.536;19.066;2023-02-11T03:32:41;102341.28;;;-4.19;100.00
60583;BME280;46415;47.536;19.066;2023-02-11T03:35:59;102338.66;;;-4.21;100.00
60583;BME280;46415;47.536;19.066;2023-02-11T03:39:04;102332.13;;;-4.33;100.00
60583;BME280;46415;47.536;19.066;2023-02-11T03:42:09;102328.97;;;-4.29;100.00
60583;BME280;46415;47.536;19.066;2023-02-11T03:45:17;102338.94;;;-4.32;100.00
60583;BME280;46415;47.536;19.066;2023-02-11T03:48:25;102326.94;;;-4.36;100.00
60583;BME280;46415;47.536;19.066;2023-02-11T03:51:31;102323.62;;;-4.35;100.00
60583;BME280;46415;47.536;19.066;2023-02-11T03:54:35;102308.75;;;-4.28;100.00
60583;BME280;46415;47.536;19.066;2023-02-11T03:57:39;102307.44;;;-4.20;100.00
60583;BME280;46415;47.536;19.066;2023-02-11T04:00:44;102303.97;;;-4.22;100.00
60583;BME280;46415;47.536;19.066;2023-02-11T04:03:47;102304.75;;;-4.23;100.00
60583;BME280;46415;47.536;19.066;2023-02-11T04:06:49;102297.09;;;-4.24;100.00
60583;BME280;46415;47.536;19.066;2023-02-11T04:09:52;102289.34;;;-4.27;100.00
60583;BME280;46415;47.536;19.066;2023-02-11T04:12:55;102286.59;;;-4.32;100.00
60583;BME280;46415;47.536;19.066;2023-02-11T04:15:58;102281.31;;;-4.36;100.00
60583;BME280;46415;47.536;19.066;2023-02-11T04:19:01;102273.56;;;-4.39;100.00
60583;BME280;46415;47.536;19.066;2023-02-11T04:22:04;102270.44;;;-4.34;100.00
60583;BME280;46415;47.536;19.066;2023-02-11T04:25:08;102266.44;;;-4.29;100.00
60583;BME280;46415;47.536;19.066;2023-02-11T04:28:11;102267.41;;;-4.27;100.00
60583;BME280;46415;47.536;19.066;2023-02-11T04:31:14;102271.31;;;-4.33;100.00
60583;BME280;46415;47.536;19.066;2023-02-11T04:34:17;102271.19;;;-4.36;100.00
60583;BME280;46415;47.536;19.066;2023-02-11T04:37:19;102268.50;;;-4.39;100.00
60583;BME280;46415;47.536;19.066;2023-02-11T04:40:23;102266.34;;;-4.49;100.00
60583;BME280;46415;47.536;19.066;2023-02-11T04:43:25;102277.41;;;-4.47;100.00
60583;BME280;46415;47.536;19.066;2023-02-11T04:46:28;102275.38;;;-4.55;100.00
60583;BME280;46415;47.536;19.066;2023-02-11T04:49:31;102272.62;;;-4.59;100.00
60583;BME280;46415;47.536;19.066;2023-02-11T04:52:34;102277.53;;;-4.62;100.00
60583;BME280;46415;47.536;19.066;2023-02-11T04:55:36;102274.06;;;-4.64;100.00
60583;BME280;46415;47.536;19.066;2023-02-11T04:58:39;102276.66;;;-4.63;100.00
60583;BME280;46415;47.536;19.066;2023-02-11T05:01:42;102271.69;;;-4.61;100.00
60583;BME280;46415;47.536;19.066;2023-02-11T05:04:45;102270.59;;;-4.66;100.00
60583;BME280;46415;47.536;19.066;2023-02-11T05:07:47;102270.03;;;-4.43;100.00
60583;BME280;46415;47.536;19.066;2023-02-11T05:10:50;102286.22;;;-4.57;100.00
60583;BME280;46415;47.536;19.066;2023-02-11T05:13:53;102284.06;;;-4.67;100.00
60583;BME280;46415;47.536;19.066;2023-02-11T05:16:56;102282.81;;;-4.75;100.00
60583;BME280;46415;47.536;19.066;2023-02-11T05:19:59;102284.63;;;-4.73;100.00
60583;BME280;46415;47.536;19.066;2023-02-11T05:23:02;102280.13;;;-4.78;100.00
60583;BME280;46415;47.536;19.066;2023-02-11T05:26:05;102281.72;;;-4.80;100.00
60583;BME280;46415;47.536;19.066;2023-02-11T05:29:08;102277.59;;;-4.78;100.00
60583;BME280;46415;47.536;19.066;2023-02-11T05:32:11;102273.41;;;-4.78;100.00
60583;BME280;46415;47.536;19.066;2023-02-11T05:35:14;102269.44;;;-4.73;100.00
60583;BME280;46415;47.536;19.066;2023-02-11T05:38:17;102264.44;;;-4.71;100.00
60583;BME280;46415;47.536;19.066;2023-02-11T05:41:20;102266.97;;;-4.71;100.00
60583;BME280;46415;47.536;19.066;2023-02-11T05:44:23;102259.12;;;-4.76;100.00
60583;BME280;46415;47.536;19.066;2023-02-11T05:47:26;102258.22;;;-4.78;100.00
60583;BME280;46415;47.536;19.066;2023-02-11T05:50:28;102256.56;;;-4.77;100.00
60583;BME280;46415;47.536;19.066;2023-02-11T05:53:31;102253.37;;;-4.73;100.00
60583;BME280;46415;47.536;19.066;2023-02-11T05:56:34;102254.03;;;-4.60;100.00
60583;BME280;46415;47.536;19.066;2023-02-11T05:59:37;102261.38;;;-4.64;100.00
60583;BME280;46415;47.536;19.066;2023-02-11T06:02:40;102254.09;;;-4.58;100.00
60583;BME280;46415;47.536;19.066;2023-02-11T06:05:44;102260.03;;;-4.58;100.00
60583;BME280;46415;47.536;19.066;2023-02-11T06:08:47;102272.19;;;-4.50;100.00
60583;BME280;46415;47.536;19.066;2023-02-11T06:11:50;102270.22;;;-4.56;100.00
60583;BME280;46415;47.536;19.066;2023-02-11T06:14:53;102267.63;;;-4.58;100.00
60583;BME280;46415;47.536;19.066;2023-02-11T06:17:56;102262.56;;;-4.58;100.00
60583;BME280;46415;47.536;19.066;2023-02-11T06:20:59;102254.31;;;-4.54;100.00
60583;BME280;46415;47.536;19.066;2023-02-11T06:24:02;102246.19;;;-4.46;100.00
60583;BME280;46415;47.536;19.066;2023-02-11T06:27:05;102250.72;;;-4.41;100.00
60583;BME280;46415;47.536;19.066;2023-02-11T06:30:08;102243.53;;;-4.32;100.00
60583;BME280;46415;47.536;19.066;2023-02-11T06:33:12;102244.81;;;-4.22;100.00
60583;BME280;46415;47.536;19.066;2023-02-11T06:36:17;102253.03;;;-4.08;100.00
60583;BME280;46415;47.536;19.066;2023-02-11T06:39:21;102250.34;;;-3.94;100.00
60583;BME280;46415;47.536;19.066;2023-02-11T06:42:24;102254.28;;;-3.81;100.00
60583;BME280;46415;47.536;19.066;2023-02-11T06:45:27;102249.75;;;-3.69;100.00
60583;BME280;46415;47.536;19.066;2023-02-11T06:48:30;102252.91;;;-3.55;100.00
60583;BME280;46415;47.536;19.066;2023-02-11T06:51:33;102249.22;;;-3.43;100.00
60583;BME280;46415;47.536;19.066;2023-02-11T06:54:36;102244.66;;;-3.31;100.00
60583;BME280;46415;47.536;19.066;2023-02-11T06:57:38;102244.19;;;-3.22;100.00
60583;BME280;46415;47.536;19.066;2023-02-11T07:00:41;102248.97;;;-3.09;100.00
60583;BME280;46415;47.536;19.066;2023-02-11T07:03:44;102242.88;;;-2.93;100.00
60583;BME280;46415;47.536;19.066;2023-02-11T07:06:48;102238.16;;;-2.84;100.00
60583;BME280;46415;47.536;19.066;2023-02-11T07:09:51;102238.94;;;-2.64;100.00
60583;BME280;46415;47.536;19.066;2023-02-11T07:12:54;102240.97;;;-2.56;100.00
60583;BME280;46415;47.536;19.066;2023-02-11T07:16:04;102247.47;;;-2.41;100.00
60583;BME280;46415;47.536;19.066;2023-02-11T07:19:07;102242.00;;;-2.30;100.00
60583;BME280;46415;47.536;19.066;2023-02-11T07:22:10;102233.22;;;-2.16;100.00
60583;BME280;46415;47.536;19.066;2023-02-11T07:25:14;102220.47;;;-1.93;100.00
60583;BME280;46415;47.536;19.066;2023-02-11T07:28:17;102227.69;;;-1.58;100.00
60583;BME280;46415;47.536;19.066;2023-02-11T07:31:22;102240.09;;;-1.19;100.00
60583;BME280;46415;47.536;19.066;2023-02-11T07:34:26;102237.91;;;-0.84;100.00
60583;BME280;46415;47.536;19.066;2023-02-11T07:37:29;102228.91;;;-0.46;100.00
60583;BME280;46415;47.536;19.066;2023-02-11T07:40:31;102228.97;;;-0.16;100.00
60583;BME280;46415;47.536;19.066;2023-02-11T07:43:35;102228.81;;;0.08;98.56
60583;BME280;46415;47.536;19.066;2023-02-11T07:46:38;102227.47;;;0.21;96.09
60583;BME280;46415;47.536;19.066;2023-02-11T07:49:44;102220.37;;;0.11;94.43
60583;BME280;46415;47.536;19.066;2023-02-11T07:52:47;102217.13;;;0.16;95.02
60583;BME280;46415;47.536;19.066;2023-02-11T07:55:50;102213.84;;;0.20;94.41
60583;BME280;46415;47.536;19.066;2023-02-11T07:58:54;102216.44;;;0.22;93.49
60583;BME280;46415;47.536;19.066;2023-02-11T08:01:58;102210.84;;;0.35;93.37
60583;BME280;46415;47.536;19.066;2023-02-11T08:05:01;102203.31;;;0.39;91.81
60583;BME280;46415;47.536;19.066;2023-02-11T08:08:04;102206.56;;;0.34;91.25
60583;BME280;46415;47.536;19.066;2023-02-11T08:11:07;102214.06;;;0.59;91.05
60583;BME280;46415;47.536;19.066;2023-02-11T08:14:11;102211.03;;;0.74;90.45
60583;BME280;46415;47.536;19.066;2023-02-11T08:17:14;102207.94;;;0.86;89.69
60583;BME280;46415;47.536;19.066;2023-02-11T08:20:16;102209.25;;;1.04;88.54
60583;BME280;46415;47.536;19.066;2023-02-11T08:23:19;102205.88;;;1.05;88.38
60583;BME280;46415;47.536;19.066;2023-02-11T08:26:25;102200.91;;;1.11;89.11
60583;BME280;46415;47.536;19.066;2023-02-11T08:29:29;102201.00;;;1.16;89.72
60583;BME280;46415;47.536;19.066;2023-02-11T08:32:33;102209.75;;;1.24;89.32
60583;BME280;46415;47.536;19.066;2023-02-11T08:35:37;102207.53;;;1.39;88.36
60583;BME280;46415;47.536;19.066;2023-02-11T08:38:41;102209.53;;;1.52;85.52
60583;BME280;46415;47.536;19.066;2023-02-11T08:41:46;102212.56;;;1.72;83.05
60583;BME280;46415;47.536;19.066;2023-02-11T08:44:50;102204.38;;;1.88;76.13
60583;BME280;46415;47.536;19.066;2023-02-11T08:47:53;102205.41;;;1.98;72.64
60583;BME280;46415;47.536;19.066;2023-02-11T08:50:56;102200.81;;;2.24;73.46
60583;BME280;46415;47.536;19.066;2023-02-11T08:53:59;102191.97;;;2.53;71.81
60583;BME280;46415;47.536;19.066;2023-02-11T08:57:03;102200.06;;;2.76;68.91
60583;BME280;46415;47.536;19.066;2023-02-11T09:00:06;102199.37;;;2.84;68.66
60583;BME280;46415;47.536;19.066;2023-02-11T09:03:13;102191.31;;;3.13;68.10
60583;BME280;46415;47.536;19.066;2023-02-11T09:06:17;102197.91;;;2.99;65.70
60583;BME280;46415;47.536;19.066;2023-02-11T09:09:20;102193.78;;;3.07;65.79
60583;BME280;46415;47.536;19.066;2023-02-11T09:12:23;102190.56;;;3.20;64.35
60583;BME280;46415;47.536;19.066;2023-02-11T09:15:26;102185.63;;;3.32;64.00
60583;BME280;46415;47.536;19.066;2023-02-11T09:18:29;102179.13;;;3.55;62.00
60583;BME280;46415;47.536;19.066;2023-02-11T09:21:31;102182.00;;;3.80;60.57
60583;BME280;46415;47.536;19.066;2023-02-11T09:24:35;102183.53;;;4.36;59.08
60583;BME280;46415;47.536;19.066;2023-02-11T09:27:37;102174.50;;;4.78;57.74
60583;BME280;46415;47.536;19.066;2023-02-11T09:30:40;102173.06;;;5.09;56.65
60583;BME280;46415;47.536;19.066;2023-02-11T09:33:45;102161.16;;;5.18;55.43
60583;BME280;46415;47.536;19.066;2023-02-11T09:36:51;102163.53;;;4.96;56.30
60583;BME280;46415;47.536;19.066;2023-02-11T09:39:54;102165.97;;;4.80;56.04
60583;BME280;46415;47.536;19.066;2023-02-11T09:43:10;102159.06;;;4.73;56.41
60583;BME280;46415;47.536;19.066;2023-02-11T09:46:18;102153.13;;;4.83;56.19
60583;BME280;46415;47.536;19.066;2023-02-11T09:49:44;102150.91;;;5.27;55.82
60583;BME280;46415;47.536;19.066;2023-02-11T09:52:58;102151.94;;;5.61;54.59
60583;BME280;46415;47.536;19.066;2023-02-11T09:56:10;102141.72;;;5.80;53.77
60583;BME280;46415;47.536;19.066;2023-02-11T09:59:14;102141.03;;;6.15;53.54
60583;BME280;46415;47.536;19.066;2023-02-11T10:05:39;102142.81;;;6.44;52.51
60583;BME280;46415;47.536;19.066;2023-02-11T10:08:50;102142.75;;;6.15;52.59
60583;BME280;46415;47.536;19.066;2023-02-11T10:15:36;102137.53;;;5.89;53.45
60583;BME280;46415;47.536;19.066;2023-02-11T10:22:03;102130.50;;;5.64;54.58
60583;BME280;46415;47.536;19.066;2023-02-11T10:25:22;102123.53;;;5.42;55.05
60583;BME280;46415;47.536;19.066;2023-02-11T10:28:35;102117.41;;;5.23;55.64
60583;BME280;46415;47.536;19.066;2023-02-11T10:31:41;102103.56;;;5.04;57.25
60583;BME280;46415;47.536;19.066;2023-02-11T10:34:44;102101.81;;;5.00;57.30
60583;BME280;46415;47.536;19.066;2023-02-11T10:37:48;102100.16;;;5.13;57.10
60583;BME280;46415;47.536;19.066;2023-02-11T10:40:51;102096.88;;;5.38;55.63
60583;BME280;46415;47.536;19.066;2023-02-11T10:43:54;102091.72;;;5.33;56.33
60583;BME280;46415;47.536;19.066;2023-02-11T10:47:02;102082.38;;;5.48;55.74
60583;BME280;46415;47.536;19.066;2023-02-11T10:50:28;102079.16;;;6.09;54.80
60583;BME280;46415;47.536;19.066;2023-02-11T10:53:36;102073.16;;;6.86;52.37
60583;BME280;46415;47.536;19.066;2023-02-11T10:56:43;102067.87;;;7.33;51.44
60583;BME280;46415;47.536;19.066;2023-02-11T10:59:47;102066.16;;;7.42;50.24
60583;BME280;46415;47.536;19.066;2023-02-11T11:02:55;102062.81;;;7.03;52.18
60583;BME280;46415;47.536;19.066;2023-02-11T11:06:01;102066.16;;;7.40;50.46
60583;BME280;46415;47.536;19.066;2023-02-11T11:09:05;102060.22;;;7.03;50.23
60583;BME280;46415;47.536;19.066;2023-02-11T11:12:47;102054.25;;;6.96;50.24
60583;BME280;46415;47.536;19.066;2023-02-11T11:16:17;102044.81;;;6.77;50.99
60583;BME280;46415;47.536;19.066;2023-02-11T11:19:22;102039.66;;;6.51;51.45
60583;BME280;46415;47.536;19.066;2023-02-11T11:22:25;102033.63;;;6.05;52.73
60583;BME280;46415;47.536;19.066;2023-02-11T11:25:29;102037.91;;;5.94;53.48
60583;BME280;46415;47.536;19.066;2023-02-11T11:32:04;102024.00;;;5.47;54.66
60583;BME280;46415;47.536;19.066;2023-02-11T11:35:27;102018.84;;;5.56;55.06
60583;BME280;46415;47.536;19.066;2023-02-11T11:38:31;102008.72;;;6.01;53.74
60583;BME280;46415;47.536;19.066;2023-02-11T11:41:35;102007.00;;;6.55;52.15
60583;BME280;46415;47.536;19.066;2023-02-11T11:44:38;102006.91;;;6.91;51.18
60583;BME280;46415;47.536;19.066;2023-02-11T11:47:51;101993.19;;;6.80;51.07
60583;BME280;46415;47.536;19.066;2023-02-11T11:51:01;101984.62;;;6.66;50.63
60583;BME280;46415;47.536;19.066;2023-02-11T11:54:11;101981.12;;;6.85;49.89
60583;BME280;46415;47.536;19.066;2023-02-11T11:57:17;101983.75;;;6.70;49.18
60583;BME280;46415;47.536;19.066;2023-02-11T12:00:46;101984.59;;;6.84;48.13
60583;BME280;46415;47.536;19.066;2023-02-11T12:04:27;101975.97;;;6.84;48.56
60583;BME280;46415;47.536;19.066;2023-02-11T12:24:59;101922.44;;;7.27;45.52
60583;BME280;46415;47.536;19.066;2023-02-11T12:38:29;101899.19;;;7.28;45.01
60583;BME280;46415;47.536;19.066;2023-02-11T12:54:34;101892.69;;;7.95;43.45
60583;BME280;46415;47.536;19.066;2023-02-11T12:57:40;101881.44;;;8.03;42.30
60583;BME280;46415;47.536;19.066;2023-02-11T13:00:52;101872.91;;;7.92;42.18
60583;BME280;46415;47.536;19.066;2023-02-11T13:04:16;101877.44;;;7.64;42.17
60583;BME280;46415;47.536;19.066;2023-02-11T13:07:38;101870.72;;;7.39;42.26
60583;BME280;46415;47.536;19.066;2023-02-11T13:10:47;101873.06;;;7.69;41.94
60583;BME280;46415;47.536;19.066;2023-02-11T13:17:00;101860.50;;;8.28;40.41
60583;BME280;46415;47.536;19.066;2023-02-11T13:20:20;101864.81;;;8.30;39.71
60583;BME280;46415;47.536;19.066;2023-02-11T13:23:48;101853.75;;;8.11;39.55
60583;BME280;46415;47.536;19.066;2023-02-11T13:30:32;101834.84;;;8.06;40.13
60583;BME280;46415;47.536;19.066;2023-02-11T13:33:39;101826.37;;;7.92;39.88
60583;BME280;46415;47.536;19.066;2023-02-11T13:36:54;101830.66;;;7.96;40.51
60583;BME280;46415;47.536;19.066;2023-02-11T13:43:23;101823.16;;;7.64;40.59
60583;BME280;46415;47.536;19.066;2023-02-11T13:46:29;101821.59;;;7.48;41.14
60583;BME280;46415;47.536;19.066;2023-02-11T13:49:36;101825.94;;;7.45;41.48
60583;BME280;46415;47.536;19.066;2023-02-11T13:52:43;101824.25;;;7.37;41.53
60583;BME280;46415;47.536;19.066;2023-02-11T13:55:48;101834.63;;;7.30;41.99
60583;BME280;46415;47.536;19.066;2023-02-11T13:58:52;101828.62;;;7.28;42.23
60583;BME280;46415;47.536;19.066;2023-02-11T14:12:21;101820.53;;;7.70;41.76
60583;BME280;46415;47.536;19.066;2023-02-11T14:15:25;101813.69;;;7.65;41.28
60583;BME280;46415;47.536;19.066;2023-02-11T14:21:39;101810.66;;;8.12;40.79
60583;BME280;46415;47.536;19.066;2023-02-11T14:25:01;101822.34;;;8.46;40.20
60583;BME280;46415;47.536;19.066;2023-02-11T14:28:20;101835.62;;;8.88;39.71
60583;BME280;46415;47.536;19.066;2023-02-11T14:31:35;101851.66;;;9.17;38.86
60583;BME280;46415;47.536;19.066;2023-02-11T14:38:33;101845.56;;;8.52;40.17
60583;BME280;46415;47.536;19.066;2023-02-11T14:41:40;101849.59;;;7.98;41.29
60583;BME280;46415;47.536;19.066;2023-02-11T14:44:45;101849.75;;;7.78;41.93
60583;BME280;46415;47.536;19.066;2023-02-11T14:47:54;101846.56;;;7.46;42.71
60583;BME280;46415;47.536;19.066;2023-02-11T14:51:13;101839.87;;;7.21;43.42
60583;BME280;46415;47.536;19.066;2023-02-11T14:54:22;101837.25;;;7.25;43.45
60583;BME280;46415;47.536;19.066;2023-02-11T14:57:26;101824.28;;;7.33;43.42
60583;BME280;46415;47.536;19.066;2023-02-11T15:00:29;101826.72;;;7.51;43.45
60583;BME280;46415;47.536;19.066;2023-02-11T15:03:38;101820.25;;;8.01;42.48
60583;BME280;46415;47.536;19.066;2023-02-11T15:06:45;101810.34;;;8.42;41.58
60583;BME280;46415;47.536;19.066;2023-02-11T15:09:51;101804.97;;;8.59;41.30
60583;BME280;46415;47.536;19.066;2023-02-11T15:12:56;101792.69;;;8.00;42.26
60583;BME280;46415;47.536;19.066;2023-02-11T15:16:05;101794.62;;;7.78;42.87
60583;BME280;46415;47.536;19.066;2023-02-11T15:19:15;101788.88;;;7.47;43.66
60583;BME280;46415;47.536;19.066;2023-02-11T15:22:32;101793.41;;;7.21;44.36
60583;BME280;46415;47.536;19.066;2023-02-11T15:25:42;101795.16;;;7.13;44.65
60583;BME280;46415;47.536;19.066;2023-02-11T15:28:46;101800.38;;;7.04;45.16
60583;BME280;46415;47.536;19.066;2023-02-11T15:32:21;101791.00;;;6.89;45.77
60583;BME280;46415;47.536;19.066;2023-02-11T15:35:28;101788.53;;;6.69;46.14
60583;BME280;46415;47.536;19.066;2023-02-11T15:38:32;101779.16;;;6.53;46.39
60583;BME280;46415;47.536;19.066;2023-02-11T15:41:36;101773.19;;;6.42;46.89
60583;BME280;46415;47.536;19.066;2023-02-11T15:44:39;101772.37;;;6.34;47.33
60583;BME280;46415;47.536;19.066;2023-02-11T15:47:51;101768.94;;;6.27;47.55
60583;BME280;46415;47.536;19.066;2023-02-11T15:51:01;101768.13;;;6.14;47.97
60583;BME280;46415;47.536;19.066;2023-02-11T15:54:17;101769.03;;;6.04;48.50
60583;BME280;46415;47.536;19.066;2023-02-11T15:57:21;101771.63;;;5.95;49.10
60583;BME280;46415;47.536;19.066;2023-02-11T16:00:33;101765.59;;;5.86;49.78
60583;BME280;46415;47.536;19.066;2023-02-11T16:03:39;101771.63;;;5.83;50.56
60583;BME280;46415;47.536;19.066;2023-02-11T16:06:43;101758.75;;;5.72;50.79
60583;BME280;46415;47.536;19.066;2023-02-11T16:09:57;101751.87;;;5.67;51.24
60583;BME280;46415;47.536;19.066;2023-02-11T16:13:17;101746.75;;;5.58;51.57
60583;BME280;46415;47.536;19.066;2023-02-11T16:16:29;101745.94;;;5.42;52.43
60583;BME280;46415;47.536;19.066;2023-02-11T16:19:33;101750.22;;;5.39;52.60
60583;BME280;46415;47.536;19.066;2023-02-11T16:22:37;101739.06;;;5.32;53.20
60583;BME280;46415;47.536;19.066;2023-02-11T16:25:41;101734.75;;;5.31;53.29
60583;BME280;46415;47.536;19.066;2023-02-11T16:28:45;101736.47;;;5.40;52.78
60583;BME280;46415;47.536;19.066;2023-02-11T16:31:48;101732.19;;;5.36;52.66
60583;BME280;46415;47.536;19.066;2023-02-11T16:34:54;101735.63;;;5.41;52.40
60583;BME280;46415;47.536;19.066;2023-02-11T16:37:59;101741.63;;;5.43;52.39
60583;BME280;46415;47.536;19.066;2023-02-11T16:41:02;101742.47;;;5.39;52.61
60583;BME280;46415;47.536;19.066;2023-02-11T16:44:08;101736.47;;;5.43;52.52
60583;BME280;46415;47.536;19.066;2023-02-11T16:47:19;101737.34;;;5.36;52.93
60583;BME280;46415;47.536;19.066;2023-02-11T16:50:24;101735.63;;;5.34;52.81
60583;BME280;46415;47.536;19.066;2023-02-11T16:53:27;101728.75;;;5.27;53.12
60583;BME280;46415;47.536;19.066;2023-02-11T16:56:38;101725.34;;;5.18;53.37
60583;BME280;46415;47.536;19.066;2023-02-11T16:59:41;101744.22;;;5.21;53.59
60583;BME280;46415;47.536;19.066;2023-02-11T17:02:44;101732.19;;;5.14;53.83
60583;BME280;46415;47.536;19.066;2023-02-11T17:05:48;101742.47;;;5.20;53.93
60583;BME280;46415;47.536;19.066;2023-02-11T17:08:57;101736.50;;;5.11;54.35
60583;BME280;46415;47.536;19.066;2023-02-11T17:12:01;101735.63;;;5.07;54.57
60583;BME280;46415;47.536;19.066;2023-02-11T17:15:04;101737.34;;;5.10;54.78
60583;BME280;46415;47.536;19.066;2023-02-11T17:18:12;101746.75;;;5.03;54.87
60583;BME280;46415;47.536;19.066;2023-02-11T17:21:15;101735.63;;;4.92;55.67
60583;BME280;46415;47.536;19.066;2023-02-11T17:24:20;101745.00;;;4.79;56.13
60583;BME280;46415;47.536;19.066;2023-02-11T17:27:23;101754.41;;;4.64;56.67
60583;BME280;46415;47.536;19.066;2023-02-11T17:30:26;101761.22;;;4.46;57.25
60583;BME280;46415;47.536;19.066;2023-02-11T17:33:29;101767.19;;;4.41;59.02
60583;BME280;46415;47.536;19.066;2023-02-11T17:36:32;101768.00;;;4.32;60.84
60583;BME280;46415;47.536;19.066;2023-02-11T17:39:37;101762.84;;;4.25;60.51
60583;BME280;46415;47.536;19.066;2023-02-11T17:42:41;101756.81;;;4.17;61.07
60583;BME280;46415;47.536;19.066;2023-02-11T17:45:43;101753.38;;;4.15;61.21
60583;BME280;46415;47.536;19.066;2023-02-11T17:48:46;101759.37;;;4.15;61.20
60583;BME280;46415;47.536;19.066;2023-02-11T17:51:49;101761.09;;;4.19;61.26
60583;BME280;46415;47.536;19.066;2023-02-11T17:54:53;101749.13;;;4.21;61.34
60583;BME280;46415;47.536;19.066;2023-02-11T17:57:56;101744.81;;;4.19;61.48